sensor_id;sensor_type;location;lat;lon;timestamp;P1;durP1;ratioP1;P2;durP2;ratioP2
31618;SDS011;18230;51.502;7.108;2022-08-19T00:02:09;9.90;;;6.63;;
31618;SDS011;18230;51.502;7.108;2022-08-19T00:07:09;12.18;;;7.07;;
31618;SDS011;18230;51.502;7.108;2022-08-19T00:12:10;9.13;;;6.10;;
31618;SDS011;18230;51.502;7.108;2022-08-19T00:17:11;9.35;;;7.53;;
31618;SDS011;18230;51.502;7.108;2022-08-19T00:22:12;13.20;;;7.57;;
31618;SDS011;18230;51.502;7.108;2022-08-19T00:27:13;9.80;;;7.28;;
31618;SDS011;18230;51.502;7.108;2022-08-19T00:32:14;9.05;;;7.50;;
31618;SDS011;18230;51.502;7.108;2022-08-19T00:37:15;11.75;;;6.88;;
31618;SDS011;18230;51.502;7.108;2022-08-19T00:42:16;11.95;;;8.18;;
31618;SDS011;18230;51.502;7.108;2022-08-19T00:47:18;8.38;;;7.47;;
31618;SDS011;18230;51.502;7.108;2022-08-19T00:52:23;9.48;;;7.22;;
31618;SDS011;18230;51.502;7.108;2022-08-19T00:57:30;15.00;;;7.55;;
31618;SDS011;18230;51.502;7.108;2022-08-19T01:02:37;14.43;;;8.10;;
31618;SDS011;18230;51.502;7.108;2022-08-19T01:07:38;8.73;;;6.82;;
31618;SDS011;18230;51.502;7.108;2022-08-19T01:12:40;8.23;;;7.13;;
31618;SDS011;18230;51.502;7.108;2022-08-19T01:17:41;12.05;;;7.90;;
31618;SDS011;18230;51.502;7.108;2022-08-19T01:22:44;11.07;;;8.13;;
31618;SDS011;18230;51.502;7.108;2022-08-19T01:27:49;14.93;;;8.55;;
31618;SDS011;18230;51.502;7.108;2022-08-19T01:32:50;11.43;;;8.68;;
31618;SDS011;18230;51.502;7.108;2022-08-19T01:37:54;8.35;;;7.55;;
31618;SDS011;18230;51.502;7.108;2022-08-19T01:42:56;12.25;;;8.68;;
31618;SDS011;18230;51.502;7.108;2022-08-19T01:47:57;13.27;;;8.65;;
31618;SDS011;18230;51.502;7.108;2022-08-19T01:53:00;12.77;;;8.73;;
31618;SDS011;18230;51.502;7.108;2022-08-19T01:58:02;12.73;;;8.52;;
31618;SDS011;18230;51.502;7.108;2022-08-19T02:03:07;11.40;;;8.95;;
31618;SDS011;18230;51.502;7.108;2022-08-19T02:08:09;10.15;;;8.68;;
31618;SDS011;18230;51.502;7.108;2022-08-19T02:13:11;10.25;;;8.85;;
31618;SDS011;18230;51.502;7.108;2022-08-19T02:18:13;10.38;;;8.38;;
31618;SDS011;18230;51.502;7.108;2022-08-19T02:23:14;13.50;;;9.00;;
31618;SDS011;18230;51.502;7.108;2022-08-19T02:28:16;11.48;;;8.10;;
31618;SDS011;18230;51.502;7.108;2022-08-19T02:33:17;9.95;;;8.88;;
31618;SDS011;18230;51.502;7.108;2022-08-19T02:38:17;15.15;;;8.57;;
31618;SDS011;18230;51.502;7.108;2022-08-19T02:43:28;11.02;;;9.48;;
31618;SDS011;18230;51.502;7.108;2022-08-19T02:48:30;11.10;;;8.45;;
31618;SDS011;18230;51.502;7.108;2022-08-19T02:53:32;10.98;;;8.32;;
31618;SDS011;18230;51.502;7.108;2022-08-19T02:58:33;12.48;;;8.90;;
31618;SDS011;18230;51.502;7.108;2022-08-19T03:03:34;11.45;;;9.65;;
31618;SDS011;18230;51.502;7.108;2022-08-19T03:08:34;12.00;;;9.00;;
31618;SDS011;18230;51.502;7.108;2022-08-19T03:13:35;10.23;;;9.05;;
31618;SDS011;18230;51.502;7.108;2022-08-19T03:18:36;10.60;;;8.98;;
31618;SDS011;18230;51.502;7.108;2022-08-19T03:23:37;10.40;;;9.30;;
31618;SDS011;18230;51.502;7.108;2022-08-19T03:28:40;13.38;;;10.00;;
31618;SDS011;18230;51.502;7.108;2022-08-19T03:33:41;13.90;;;9.55;;
31618;SDS011;18230;51.502;7.108;2022-08-19T03:38:43;13.50;;;10.00;;
31618;SDS011;18230;51.502;7.108;2022-08-19T03:43:46;11.63;;;9.45;;
31618;SDS011;18230;51.502;7.108;2022-08-19T03:48:49;14.63;;;8.95;;
31618;SDS011;18230;51.502;7.108;2022-08-19T03:53:54;12.18;;;9.75;;
31618;SDS011;18230;51.502;7.108;2022-08-19T03:58:56;15.07;;;10.88;;
31618;SDS011;18230;51.502;7.108;2022-08-19T04:03:58;11.20;;;9.38;;
31618;SDS011;18230;51.502;7.108;2022-08-19T04:09:00;13.00;;;9.85;;
31618;SDS011;18230;51.502;7.108;2022-08-19T04:14:02;13.98;;;10.57;;
31618;SDS011;18230;51.502;7.108;2022-08-19T04:19:04;15.80;;;10.02;;
31618;SDS011;18230;51.502;7.108;2022-08-19T04:24:05;19.65;;;10.75;;
31618;SDS011;18230;51.502;7.108;2022-08-19T04:29:13;14.88;;;11.23;;
31618;SDS011;18230;51.502;7.108;2022-08-19T04:34:17;17.25;;;13.38;;
31618;SDS011;18230;51.502;7.108;2022-08-19T04:39:31;14.20;;;11.23;;
31618;SDS011;18230;51.502;7.108;2022-08-19T04:44:50;15.52;;;10.98;;
31618;SDS011;18230;51.502;7.108;2022-08-19T04:49:50;17.55;;;11.93;;
31618;SDS011;18230;51.502;7.108;2022-08-19T04:54:51;14.32;;;11.43;;
31618;SDS011;18230;51.502;7.108;2022-08-19T04:59:55;17.83;;;11.82;;
31618;SDS011;18230;51.502;7.108;2022-08-19T05:04:57;18.45;;;12.93;;
31618;SDS011;18230;51.502;7.108;2022-08-19T05:10:03;15.40;;;12.25;;
31618;SDS011;18230;51.502;7.108;2022-08-19T05:15:05;17.77;;;13.32;;
31618;SDS011;18230;51.502;7.108;2022-08-19T05:20:08;16.38;;;12.77;;
31618;SDS011;18230;51.502;7.108;2022-08-19T05:25:28;18.67;;;12.32;;
31618;SDS011;18230;51.502;7.108;2022-08-19T05:30:28;14.35;;;11.32;;
31618;SDS011;18230;51.502;7.108;2022-08-19T05:35:29;19.10;;;12.63;;
31618;SDS011;18230;51.502;7.108;2022-08-19T05:40:30;16.95;;;12.20;;
31618;SDS011;18230;51.502;7.108;2022-08-19T05:45:37;22.98;;;12.32;;
31618;SDS011;18230;51.502;7.108;2022-08-19T05:50:39;15.00;;;11.88;;
31618;SDS011;18230;51.502;7.108;2022-08-19T05:55:41;19.02;;;12.32;;
31618;SDS011;18230;51.502;7.108;2022-08-19T06:00:42;22.65;;;13.82;;
31618;SDS011;18230;51.502;7.108;2022-08-19T06:05:44;18.85;;;14.13;;
31618;SDS011;18230;51.502;7.108;2022-08-19T06:10:45;22.92;;;14.85;;
31618;SDS011;18230;51.502;7.108;2022-08-19T06:15:46;21.38;;;13.90;;
31618;SDS011;18230;51.502;7.108;2022-08-19T06:20:47;26.60;;;13.07;;
31618;SDS011;18230;51.502;7.108;2022-08-19T06:25:48;18.92;;;15.50;;
31618;SDS011;18230;51.502;7.108;2022-08-19T06:30:49;24.80;;;15.48;;
31618;SDS011;18230;51.502;7.108;2022-08-19T06:35:51;21.95;;;15.18;;
31618;SDS011;18230;51.502;7.108;2022-08-19T06:40:59;23.98;;;18.13;;
31618;SDS011;18230;51.502;7.108;2022-08-19T06:46:02;28.73;;;20.48;;
31618;SDS011;18230;51.502;7.108;2022-08-19T06:51:03;36.05;;;23.65;;
31618;SDS011;18230;51.502;7.108;2022-08-19T06:56:05;31.20;;;23.50;;
31618;SDS011;18230;51.502;7.108;2022-08-19T07:01:06;32.58;;;23.13;;
31618;SDS011;18230;51.502;7.108;2022-08-19T07:06:09;34.10;;;24.48;;
31618;SDS011;18230;51.502;7.108;2022-08-19T07:11:13;40.72;;;25.95;;
31618;SDS011;18230;51.502;7.108;2022-08-19T07:16:18;38.20;;;25.08;;
31618;SDS011;18230;51.502;7.108;2022-08-19T07:21:23;43.63;;;28.23;;
31618;SDS011;18230;51.502;7.108;2022-08-19T07:26:30;41.72;;;25.08;;
31618;SDS011;18230;51.502;7.108;2022-08-19T07:31:32;39.28;;;27.58;;
31618;SDS011;18230;51.502;7.108;2022-08-19T07:36:38;42.38;;;28.60;;
31618;SDS011;18230;51.502;7.108;2022-08-19T07:41:40;44.90;;;27.55;;
31618;SDS011;18230;51.502;7.108;2022-08-19T07:46:43;42.95;;;29.42;;
31618;SDS011;18230;51.502;7.108;2022-08-19T07:52:07;37.40;;;27.67;;
31618;SDS011;18230;51.502;7.108;2022-08-19T07:57:07;41.50;;;27.40;;
31618;SDS011;18230;51.502;7.108;2022-08-19T08:02:08;47.50;;;31.95;;
31618;SDS011;18230;51.502;7.108;2022-08-19T08:07:09;39.30;;;29.02;;
31618;SDS011;18230;51.502;7.108;2022-08-19T08:12:31;50.08;;;33.35;;
31618;SDS011;18230;51.502;7.108;2022-08-19T08:17:35;43.58;;;31.55;;
31618;SDS011;18230;51.502;7.108;2022-08-19T08:22:36;52.47;;;32.60;;
31618;SDS011;18230;51.502;7.108;2022-08-19T08:28:02;49.22;;;38.08;;
31618;SDS011;18230;51.502;7.108;2022-08-19T08:33:05;46.40;;;34.53;;
31618;SDS011;18230;51.502;7.108;2022-08-19T08:38:06;46.20;;;36.58;;
31618;SDS011;18230;51.502;7.108;2022-08-19T08:53:54;66.85;;;40.35;;
31618;SDS011;18230;51.502;7.108;2022-08-19T08:59:00;52.47;;;41.05;;
31618;SDS011;18230;51.502;7.108;2022-08-19T09:04:07;51.72;;;39.10;;
31618;SDS011;18230;51.502;7.108;2022-08-19T09:09:16;53.42;;;40.67;;
31618;SDS011;18230;51.502;7.108;2022-08-19T09:14:34;61.00;;;50.40;;
31618;SDS011;18230;51.502;7.108;2022-08-19T09:20:00;39.00;;;30.58;;
31618;SDS011;18230;51.502;7.108;2022-08-19T09:25:12;34.17;;;27.70;;
31618;SDS011;18230;51.502;7.108;2022-08-19T09:30:21;44.38;;;30.23;;
31618;SDS011;18230;51.502;7.108;2022-08-19T09:35:26;40.90;;;29.55;;
31618;SDS011;18230;51.502;7.108;2022-08-19T09:40:28;39.03;;;29.05;;
31618;SDS011;18230;51.502;7.108;2022-08-19T09:45:30;36.83;;;25.98;;
31618;SDS011;18230;51.502;7.108;2022-08-19T09:50:31;30.92;;;22.70;;
31618;SDS011;18230;51.502;7.108;2022-08-19T09:55:35;23.85;;;19.00;;
31618;SDS011;18230;51.502;7.108;2022-08-19T10:00:41;28.02;;;18.73;;
31618;SDS011;18230;51.502;7.108;2022-08-19T10:05:42;24.25;;;15.65;;
31618;SDS011;18230;51.502;7.108;2022-08-19T10:10:49;19.92;;;16.05;;
31618;SDS011;18230;51.502;7.108;2022-08-19T10:15:50;22.92;;;18.30;;
31618;SDS011;18230;51.502;7.108;2022-08-19T10:21:01;22.30;;;18.15;;
31618;SDS011;18230;51.502;7.108;2022-08-19T10:26:09;23.47;;;18.07;;
31618;SDS011;18230;51.502;7.108;2022-08-19T10:31:21;25.52;;;18.73;;
31618;SDS011;18230;51.502;7.108;2022-08-19T10:36:26;21.77;;;16.98;;
31618;SDS011;18230;51.502;7.108;2022-08-19T10:41:33;28.33;;;24.50;;
31618;SDS011;18230;51.502;7.108;2022-08-19T10:46:36;31.00;;;25.92;;
31618;SDS011;18230;51.502;7.108;2022-08-19T10:51:41;31.60;;;27.33;;
31618;SDS011;18230;51.502;7.108;2022-08-19T10:57:01;31.15;;;22.63;;
31618;SDS011;18230;51.502;7.108;2022-08-19T11:02:03;32.08;;;23.80;;
31618;SDS011;18230;51.502;7.108;2022-08-19T11:07:05;39.03;;;29.85;;
31618;SDS011;18230;51.502;7.108;2022-08-19T11:12:08;33.42;;;26.30;;
31618;SDS011;18230;51.502;7.108;2022-08-19T11:17:10;29.80;;;24.80;;
31618;SDS011;18230;51.502;7.108;2022-08-19T11:22:13;35.20;;;24.45;;
31618;SDS011;18230;51.502;7.108;2022-08-19T11:27:14;27.30;;;23.40;;
31618;SDS011;18230;51.502;7.108;2022-08-19T11:32:15;27.75;;;21.40;;
31618;SDS011;18230;51.502;7.108;2022-08-19T11:37:16;26.73;;;21.08;;
31618;SDS011;18230;51.502;7.108;2022-08-19T11:42:17;22.85;;;18.88;;
31618;SDS011;18230;51.502;7.108;2022-08-19T11:47:36;19.58;;;17.20;;
31618;SDS011;18230;51.502;7.108;2022-08-19T11:52:38;20.80;;;17.48;;
31618;SDS011;18230;51.502;7.108;2022-08-19T11:57:39;24.00;;;18.40;;
31618;SDS011;18230;51.502;7.108;2022-08-19T12:02:41;19.55;;;16.17;;
31618;SDS011;18230;51.502;7.108;2022-08-19T12:07:42;23.08;;;15.32;;
31618;SDS011;18230;51.502;7.108;2022-08-19T12:12:43;20.38;;;14.45;;
31618;SDS011;18230;51.502;7.108;2022-08-19T12:17:46;21.48;;;11.23;;
31618;SDS011;18230;51.502;7.108;2022-08-19T12:22:46;13.43;;;10.73;;
31618;SDS011;18230;51.502;7.108;2022-08-19T12:27:48;14.63;;;10.10;;
31618;SDS011;18230;51.502;7.108;2022-08-19T12:32:49;11.68;;;9.43;;
31618;SDS011;18230;51.502;7.108;2022-08-19T12:37:51;24.77;;;10.25;;
31618;SDS011;18230;51.502;7.108;2022-08-19T12:42:51;10.43;;;9.18;;
31618;SDS011;18230;51.502;7.108;2022-08-19T12:47:53;12.10;;;7.47;;
31618;SDS011;18230;51.502;7.108;2022-08-19T12:52:53;12.63;;;8.25;;
31618;SDS011;18230;51.502;7.108;2022-08-19T12:57:54;9.93;;;8.77;;
31618;SDS011;18230;51.502;7.108;2022-08-19T13:02:55;14.35;;;9.32;;
31618;SDS011;18230;51.502;7.108;2022-08-19T13:07:57;13.07;;;8.82;;
31618;SDS011;18230;51.502;7.108;2022-08-19T13:12:59;9.80;;;8.00;;
31618;SDS011;18230;51.502;7.108;2022-08-19T13:18:02;11.52;;;7.90;;
31618;SDS011;18230;51.502;7.108;2022-08-19T13:23:03;10.23;;;6.78;;
31618;SDS011;18230;51.502;7.108;2022-08-19T13:28:04;9.40;;;8.00;;
31618;SDS011;18230;51.502;7.108;2022-08-19T13:33:06;13.50;;;7.28;;
31618;SDS011;18230;51.502;7.108;2022-08-19T13:38:11;9.63;;;7.38;;
31618;SDS011;18230;51.502;7.108;2022-08-19T13:43:13;13.38;;;7.40;;
31618;SDS011;18230;51.502;7.108;2022-08-19T13:48:14;12.30;;;7.10;;
31618;SDS011;18230;51.502;7.108;2022-08-19T13:53:15;15.90;;;6.97;;
31618;SDS011;18230;51.502;7.108;2022-08-19T13:58:16;10.65;;;6.38;;
31618;SDS011;18230;51.502;7.108;2022-08-19T14:03:17;14.43;;;6.20;;
31618;SDS011;18230;51.502;7.108;2022-08-19T14:08:18;9.88;;;6.13;;
31618;SDS011;18230;51.502;7.108;2022-08-19T14:13:19;11.35;;;6.32;;
31618;SDS011;18230;51.502;7.108;2022-08-19T14:18:22;10.27;;;5.32;;
31618;SDS011;18230;51.502;7.108;2022-08-19T14:23:22;7.82;;;5.22;;
31618;SDS011;18230;51.502;7.108;2022-08-19T14:28:23;10.63;;;5.43;;
31618;SDS011;18230;51.502;7.108;2022-08-19T14:33:24;10.20;;;5.55;;
31618;SDS011;18230;51.502;7.108;2022-08-19T14:38:24;11.27;;;6.45;;
31618;SDS011;18230;51.502;7.108;2022-08-19T14:43:25;11.80;;;6.05;;
31618;SDS011;18230;51.502;7.108;2022-08-19T14:48:25;7.47;;;5.82;;
31618;SDS011;18230;51.502;7.108;2022-08-19T14:53:26;14.52;;;6.57;;
31618;SDS011;18230;51.502;7.108;2022-08-19T14:58:27;9.23;;;6.40;;
31618;SDS011;18230;51.502;7.108;2022-08-19T15:03:28;11.95;;;6.80;;
31618;SDS011;18230;51.502;7.108;2022-08-19T15:08:30;13.40;;;6.25;;
31618;SDS011;18230;51.502;7.108;2022-08-19T15:13:32;12.07;;;6.40;;
31618;SDS011;18230;51.502;7.108;2022-08-19T15:18:33;9.48;;;5.80;;
31618;SDS011;18230;51.502;7.108;2022-08-19T15:23:34;7.50;;;6.25;;
31618;SDS011;18230;51.502;7.108;2022-08-19T15:28:36;13.85;;;6.25;;
31618;SDS011;18230;51.502;7.108;2022-08-19T15:33:37;11.50;;;10.02;;
31618;SDS011;18230;51.502;7.108;2022-08-19T15:38:41;13.90;;;8.02;;
31618;SDS011;18230;51.502;7.108;2022-08-19T15:43:42;12.80;;;8.18;;
31618;SDS011;18230;51.502;7.108;2022-08-19T15:48:44;11.93;;;8.30;;
31618;SDS011;18230;51.502;7.108;2022-08-19T15:53:45;7.38;;;6.20;;
31618;SDS011;18230;51.502;7.108;2022-08-19T15:58:46;7.88;;;5.88;;
31618;SDS011;18230;51.502;7.108;2022-08-19T16:04:05;10.90;;;6.07;;
31618;SDS011;18230;51.502;7.108;2022-08-19T16:09:25;11.65;;;5.65;;
31618;SDS011;18230;51.502;7.108;2022-08-19T16:14:29;10.45;;;5.72;;
31618;SDS011;18230;51.502;7.108;2022-08-19T16:19:31;14.00;;;6.22;;
31618;SDS011;18230;51.502;7.108;2022-08-19T16:24:32;15.60;;;8.45;;
31618;SDS011;18230;51.502;7.108;2022-08-19T16:29:33;17.08;;;8.30;;
31618;SDS011;18230;51.502;7.108;2022-08-19T16:34:35;17.05;;;9.70;;
31618;SDS011;18230;51.502;7.108;2022-08-19T16:39:37;14.20;;;10.25;;
31618;SDS011;18230;51.502;7.108;2022-08-19T16:44:39;13.30;;;10.60;;
31618;SDS011;18230;51.502;7.108;2022-08-19T16:49:41;16.35;;;10.95;;
31618;SDS011;18230;51.502;7.108;2022-08-19T16:54:42;18.02;;;11.27;;
31618;SDS011;18230;51.502;7.108;2022-08-19T16:59:43;14.88;;;11.13;;
31618;SDS011;18230;51.502;7.108;2022-08-19T17:04:44;19.67;;;12.52;;
31618;SDS011;18230;51.502;7.108;2022-08-19T17:09:45;15.50;;;11.48;;
31618;SDS011;18230;51.502;7.108;2022-08-19T17:14:46;21.08;;;11.43;;
31618;SDS011;18230;51.502;7.108;2022-08-19T17:19:47;19.90;;;11.65;;
31618;SDS011;18230;51.502;7.108;2022-08-19T17:24:47;19.45;;;12.27;;
31618;SDS011;18230;51.502;7.108;2022-08-19T17:29:48;22.02;;;14.10;;
31618;SDS011;18230;51.502;7.108;2022-08-19T17:34:49;21.95;;;12.40;;
31618;SDS011;18230;51.502;7.108;2022-08-19T17:39:49;20.35;;;12.07;;
31618;SDS011;18230;51.502;7.108;2022-08-19T17:44:51;17.17;;;10.63;;
31618;SDS011;18230;51.502;7.108;2022-08-19T17:49:52;13.65;;;10.68;;
31618;SDS011;18230;51.502;7.108;2022-08-19T17:54:53;13.43;;;10.07;;
31618;SDS011;18230;51.502;7.108;2022-08-19T17:59:53;17.15;;;11.05;;
31618;SDS011;18230;51.502;7.108;2022-08-19T18:04:54;17.27;;;9.43;;
31618;SDS011;18230;51.502;7.108;2022-08-19T18:09:55;15.73;;;9.75;;
31618;SDS011;18230;51.502;7.108;2022-08-19T18:14:56;14.07;;;8.80;;
31618;SDS011;18230;51.502;7.108;2022-08-19T18:19:57;12.32;;;8.77;;
31618;SDS011;18230;51.502;7.108;2022-08-19T18:24:59;14.23;;;7.72;;
31618;SDS011;18230;51.502;7.108;2022-08-19T18:30:01;12.48;;;7.85;;
31618;SDS011;18230;51.502;7.108;2022-08-19T18:35:05;15.75;;;7.90;;
31618;SDS011;18230;51.502;7.108;2022-08-19T18:40:14;11.25;;;8.77;;
31618;SDS011;18230;51.502;7.108;2022-08-19T18:45:39;16.15;;;9.25;;
31618;SDS011;18230;51.502;7.108;2022-08-19T18:50:59;21.60;;;10.23;;
31618;SDS011;18230;51.502;7.108;2022-08-19T18:56:04;18.50;;;12.07;;
31618;SDS011;18230;51.502;7.108;2022-08-19T19:01:08;17.73;;;13.90;;
31618;SDS011;18230;51.502;7.108;2022-08-19T19:06:11;27.77;;;15.73;;
31618;SDS011;18230;51.502;7.108;2022-08-19T19:11:52;26.90;;;16.45;;
31618;SDS011;18230;51.502;7.108;2022-08-19T19:16:47;24.70;;;16.05;;
31618;SDS011;18230;51.502;7.108;2022-08-19T19:21:49;26.98;;;16.77;;
31618;SDS011;18230;51.502;7.108;2022-08-19T19:26:50;19.30;;;15.23;;
31618;SDS011;18230;51.502;7.108;2022-08-19T19:31:52;29.23;;;15.02;;
31618;SDS011;18230;51.502;7.108;2022-08-19T19:36:54;15.63;;;11.48;;
31618;SDS011;18230;51.502;7.108;2022-08-19T19:41:55;13.70;;;10.07;;
31618;SDS011;18230;51.502;7.108;2022-08-19T19:46:56;14.80;;;10.23;;
31618;SDS011;18230;51.502;7.108;2022-08-19T19:51:58;17.48;;;10.57;;
31618;SDS011;18230;51.502;7.108;2022-08-19T19:56:59;14.43;;;11.18;;
31618;SDS011;18230;51.502;7.108;2022-08-19T20:02:00;14.02;;;10.93;;
31618;SDS011;18230;51.502;7.108;2022-08-19T20:07:00;13.50;;;9.90;;
31618;SDS011;18230;51.502;7.108;2022-08-19T20:12:01;14.82;;;8.85;;
31618;SDS011;18230;51.502;7.108;2022-08-19T20:17:02;9.55;;;7.57;;
31618;SDS011;18230;51.502;7.108;2022-08-19T20:22:04;8.60;;;5.75;;
31618;SDS011;18230;51.502;7.108;2022-08-19T20:27:05;8.77;;;6.30;;
31618;SDS011;18230;51.502;7.108;2022-08-19T20:32:06;10.63;;;6.05;;
31618;SDS011;18230;51.502;7.108;2022-08-19T20:37:08;14.40;;;6.50;;
31618;SDS011;18230;51.502;7.108;2022-08-19T20:42:09;8.43;;;6.40;;
31618;SDS011;18230;51.502;7.108;2022-08-19T20:47:09;7.30;;;5.95;;
31618;SDS011;18230;51.502;7.108;2022-08-19T20:52:10;9.27;;;6.57;;
31618;SDS011;18230;51.502;7.108;2022-08-19T20:57:11;10.43;;;6.40;;
31618;SDS011;18230;51.502;7.108;2022-08-19T21:02:11;7.18;;;6.45;;
31618;SDS011;18230;51.502;7.108;2022-08-19T21:07:13;8.98;;;6.97;;
31618;SDS011;18230;51.502;7.108;2022-08-19T21:12:14;13.68;;;6.47;;
31618;SDS011;18230;51.502;7.108;2022-08-19T21:17:14;9.20;;;6.47;;
31618;SDS011;18230;51.502;7.108;2022-08-19T21:22:15;9.70;;;7.25;;
31618;SDS011;18230;51.502;7.108;2022-08-19T21:27:16;8.73;;;6.65;;
31618;SDS011;18230;51.502;7.108;2022-08-19T21:32:17;11.20;;;6.95;;
31618;SDS011;18230;51.502;7.108;2022-08-19T21:37:18;10.57;;;6.88;;
31618;SDS011;18230;51.502;7.108;2022-08-19T21:42:20;12.02;;;7.63;;
31618;SDS011;18230;51.502;7.108;2022-08-19T21:47:22;9.13;;;7.68;;
31618;SDS011;18230;51.502;7.108;2022-08-19T21:52:23;10.68;;;7.15;;
31618;SDS011;18230;51.502;7.108;2022-08-19T21:57:25;10.98;;;8.10;;
31618;SDS011;18230;51.502;7.108;2022-08-19T22:02:26;12.75;;;8.98;;
31618;SDS011;18230;51.502;7.108;2022-08-19T22:07:27;17.67;;;11.98;;
31618;SDS011;18230;51.502;7.108;2022-08-19T22:12:29;19.23;;;12.13;;
31618;SDS011;18230;51.502;7.108;2022-08-19T22:17:34;14.85;;;11.23;;
31618;SDS011;18230;51.502;7.108;2022-08-19T22:22:36;18.45;;;12.23;;
31618;SDS011;18230;51.502;7.108;2022-08-19T22:27:38;17.60;;;11.85;;
31618;SDS011;18230;51.502;7.108;2022-08-19T22:32:43;17.88;;;13.55;;
31618;SDS011;18230;51.502;7.108;2022-08-19T22:37:45;19.58;;;12.77;;
31618;SDS011;18230;51.502;7.108;2022-08-19T22:42:46;16.52;;;12.23;;
31618;SDS011;18230;51.502;7.108;2022-08-19T22:47:47;23.45;;;14.82;;
31618;SDS011;18230;51.502;7.108;2022-08-19T22:52:48;20.27;;;14.15;;
31618;SDS011;18230;51.502;7.108;2022-08-19T22:57:54;18.55;;;12.23;;
31618;SDS011;18230;51.502;7.108;2022-08-19T23:02:55;15.13;;;11.70;;
31618;SDS011;18230;51.502;7.108;2022-08-19T23:07:56;19.25;;;13.20;;
31618;SDS011;18230;51.502;7.108;2022-08-19T23:12:57;19.60;;;13.80;;
31618;SDS011;18230;51.502;7.108;2022-08-19T23:17:59;18.45;;;13.15;;
31618;SDS011;18230;51.502;7.108;2022-08-19T23:23:02;20.10;;;14.30;;
31618;SDS011;18230;51.502;7.108;2022-08-19T23:28:05;21.70;;;15.00;;
31618;SDS011;18230;51.502;7.108;2022-08-19T23:33:27;21.45;;;13.82;;
31618;SDS011;18230;51.502;7.108;2022-08-19T23:38:33;21.33;;;16.75;;
31618;SDS011;18230;51.502;7.108;2022-08-19T23:43:36;25.90;;;18.33;;
31618;SDS011;18230;51.502;7.108;2022-08-19T23:48:38;23.40;;;17.33;;
31618;SDS011;18230;51.502;7.108;2022-08-19T23:53:39;22.98;;;18.38;;
31618;SDS011;18230;51.502;7.108;2022-08-19T23:58:41;23.38;;;18.48;;
